Time;durP1;ratioP1;P1;durP2;ratioP2;P2;SDS_P1;SDS_P2;PMS_P1;PMS_P2;Temp;Humidity;BMP_temperature;BMP_pressure;BME280_temperature;BME280_humidity;BME280_pressure;Samples;Min_cycle;Max_cycle;Signal;HPM_P1;HPM_P2
2022/12/05 00:00:31;;;;;;;23.60;13.10;;;;;;;1.92;83.56;100959.70;126884;1274;98095;-74
2022/12/05 00:03:43;;;;;;;38.10;21.90;;;;;;;1.91;83.30;100960.47;126656;1274;99135;-74
2022/12/05 00:06:46;;;;;;;39.80;19.40;;;;;;;1.91;83.28;100965.39;126823;1289;97983;-74
2022/12/05 00:09:49;;;;;;;35.80;19.30;;;;;;;1.89;83.36;100970.18;126907;1280;99643;-75
2022/12/05 00:12:52;;;;;;;25.30;13.90;;;;;;;1.83;83.25;100971.41;127060;1280;99177;-74
2022/12/05 00:15:55;;;;;;;25.60;14.40;;;;;;;1.82;83.37;100977.10;126778;1281;98045;-74
2022/12/05 00:18:59;;;;;;;28.10;16.00;;;;;;;1.83;83.48;100976.65;126908;1290;98752;-74
2022/12/05 00:22:02;;;;;;;23.40;14.30;;;;;;;1.89;83.50;100977.21;127032;1288;97984;-74
2022/12/05 00:25:06;;;;;;;39.10;21.10;;;;;;;1.92;83.26;100973.40;126787;1283;98132;-75
2022/12/05 00:28:09;;;;;;;25.30;14.00;;;;;;;1.93;83.36;100962.82;126786;1281;98105;-74
2022/12/05 00:31:13;;;;;;;23.30;13.90;;;;;;;1.96;83.14;100954.77;126722;1281;99182;-74
2022/12/05 00:34:16;;;;;;;21.80;13.00;;;;;;;1.93;83.26;100946.67;126767;1281;98774;-73
2022/12/05 00:37:18;;;;;;;20.30;13.00;;;;;;;1.91;83.26;100937.15;126618;1287;99262;-74
2022/12/05 00:40:21;;;;;;;25.30;13.50;;;;;;;1.86;82.99;100932.13;126650;1271;98093;-74
2022/12/05 00:43:23;;;;;;;20.70;12.60;;;;;;;1.80;83.19;100933.13;126710;1288;98034;-73
2022/12/05 00:46:29;;;;;;;22.00;12.30;;;;;;;1.77;83.27;100934.34;126751;1274;98547;-73
2022/12/05 00:49:32;;;;;;;19.30;12.00;;;;;;;1.77;83.37;100936.98;126668;1288;98020;-73
2022/12/05 00:52:35;;;;;;;23.70;14.30;;;;;;;1.81;83.31;100937.30;126724;1288;98010;-73
2022/12/05 00:55:38;;;;;;;23.10;13.80;;;;;;;1.83;83.34;100930.88;126601;1288;98771;-73
2022/12/05 00:58:41;;;;;;;22.80;13.10;;;;;;;1.84;83.23;100933.46;126732;1281;98121;-73
2022/12/05 01:01:46;;;;;;;23.40;13.60;;;;;;;1.84;83.26;100939.61;126768;1280;97987;-73
2022/12/05 01:04:48;;;;;;;25.00;15.50;;;;;;;1.82;83.21;100944.62;126752;1288;98093;-73
2022/12/05 01:07:51;;;;;;;20.40;12.90;;;;;;;1.80;83.27;100945.60;126633;1274;98453;-72
2022/12/05 01:10:55;;;;;;;28.40;16.70;;;;;;;1.78;83.25;100940.27;126689;1281;98048;-74
2022/12/05 01:13:58;;;;;;;23.30;14.40;;;;;;;1.72;83.15;100939.16;126581;1279;99033;-72
2022/12/05 01:17:00;;;;;;;25.70;14.80;;;;;;;1.72;83.30;100938.46;126607;1288;98752;-73
2022/12/05 01:20:05;;;;;;;19.30;11.80;;;;;;;1.78;83.37;100936.39;126670;1274;97993;-73
2022/12/05 01:23:08;;;;;;;19.90;12.50;;;;;;;1.85;83.36;100935.34;126504;1278;163404;-72
2022/12/05 01:26:14;;;;;;;23.70;13.80;;;;;;;1.93;83.14;100932.63;126543;1279;99775;-74
2022/12/05 01:29:19;;;;;;;23.60;15.20;;;;;;;1.95;83.00;100930.77;126613;1284;98027;-72
2022/12/05 01:32:22;;;;;;;23.50;13.80;;;;;;;1.96;83.15;100925.98;126673;1278;98115;-74
2022/12/05 01:35:24;;;;;;;22.40;14.80;;;;;;;1.95;82.95;100926.20;126737;1275;99529;-73
2022/12/05 01:38:28;;;;;;;21.70;13.30;;;;;;;1.90;82.86;100921.05;126641;1280;99134;-73
2022/12/05 01:41:33;;;;;;;22.10;13.00;;;;;;;1.83;82.95;100916.33;126776;1274;99714;-73
2022/12/05 01:44:59;;;;;;;25.90;14.20;;;;;;;1.79;83.03;100913.59;126681;1278;98022;-73
2022/12/05 01:48:07;;;;;;;20.90;12.40;;;;;;;1.74;83.13;100907.65;126700;1288;97989;-73
2022/12/05 01:51:10;;;;;;;18.60;11.10;;;;;;;1.75;83.20;100906.25;126760;1288;97979;-73
2022/12/05 01:54:15;;;;;;;21.40;13.10;;;;;;;1.77;83.18;100901.36;126706;1280;98008;-73
2022/12/05 01:57:18;;;;;;;22.20;13.00;;;;;;;1.77;83.13;100896.30;126687;1288;98123;-73
2022/12/05 02:00:21;;;;;;;24.60;14.10;;;;;;;1.77;83.12;100890.86;126741;1279;99494;-73
2022/12/05 02:03:24;;;;;;;21.70;13.00;;;;;;;1.77;83.13;100888.58;126669;1288;99072;-73
2022/12/05 02:06:27;;;;;;;21.30;12.10;;;;;;;1.76;83.18;100888.64;126664;1278;98008;-73
2022/12/05 02:09:30;;;;;;;20.30;12.40;;;;;;;1.74;83.13;100885.05;126675;1288;97992;-73
2022/12/05 02:12:34;;;;;;;26.60;14.30;;;;;;;1.66;83.07;100886.86;126743;1302;98777;-74
2022/12/05 02:15:43;;;;;;;21.90;13.00;;;;;;;1.64;83.18;100895.08;126745;1274;99147;-73
2022/12/05 02:18:59;;;;;;;19.60;11.80;;;;;;;1.63;83.33;100884.39;127002;1278;98773;-74
2022/12/05 02:22:34;;;;;;;23.70;13.60;;;;;;;1.65;83.38;100892.53;126713;1280;98088;-74
2022/12/05 02:26:08;;;;;;;22.80;13.20;;;;;;;1.67;83.26;100896.48;126441;1279;98130;-73
2022/12/05 02:29:50;;;;;;;23.20;13.40;;;;;;;1.73;83.27;100889.50;126582;1287;97980;-72
2022/12/05 02:33:11;;;;;;;22.30;13.10;;;;;;;1.75;83.22;100888.34;126704;1280;97980;-73
2022/12/05 02:36:22;;;;;;;22.20;12.00;;;;;;;1.72;83.03;100888.50;126759;1281;98949;-73
2022/12/05 02:39:34;;;;;;;24.70;14.00;;;;;;;1.68;83.08;100882.95;126667;1287;99162;-73
2022/12/05 02:42:44;;;;;;;23.10;13.00;;;;;;;1.62;83.17;100885.33;126627;1286;99167;-72
2022/12/05 02:45:52;;;;;;;18.10;10.10;;;;;;;1.60;83.23;100884.02;126685;1282;97981;-72
2022/12/05 02:49:00;;;;;;;22.90;12.90;;;;;;;1.62;83.38;100891.47;126692;1272;98141;-73
2022/12/05 02:52:07;;;;;;;21.60;13.00;;;;;;;1.64;83.27;100894.50;126711;1278;98080;-73
2022/12/05 02:55:12;;;;;;;21.40;12.30;;;;;;;1.68;83.31;100889.96;126757;1282;98071;-72
2022/12/05 02:58:20;;;;;;;20.00;12.00;;;;;;;1.68;83.19;100893.07;126739;1280;99237;-73
2022/12/05 03:01:26;;;;;;;21.90;13.30;;;;;;;1.67;83.23;100887.55;126813;1288;99193;-72
2022/12/05 03:04:32;;;;;;;20.90;12.60;;;;;;;1.65;83.10;100888.52;126920;1280;99170;-73
2022/12/05 03:07:37;;;;;;;26.70;14.30;;;;;;;1.61;83.15;100886.27;126657;1279;98000;-73
2022/12/05 03:10:43;;;;;;;25.80;14.00;;;;;;;1.60;83.35;100880.16;126705;1294;99172;-74
2022/12/05 03:13:48;;;;;;;19.90;10.80;;;;;;;1.64;83.27;100876.64;126663;1281;99026;-73
2022/12/05 03:16:57;;;;;;;23.70;14.00;;;;;;;1.69;83.13;100865.82;126682;1279;99132;-73
2022/12/05 03:20:06;;;;;;;22.20;13.10;;;;;;;1.74;83.27;100866.66;126898;1280;98116;-73
2022/12/05 03:23:15;;;;;;;21.60;13.30;;;;;;;1.75;83.17;100863.23;127014;1280;98025;-74
2022/12/05 03:26:31;;;;;;;25.10;15.00;;;;;;;1.72;83.13;100857.93;126950;1274;99141;-74
2022/12/05 03:29:39;;;;;;;24.00;13.70;;;;;;;1.70;83.15;100854.55;126951;1274;99170;-73
2022/12/05 03:32:50;;;;;;;25.70;14.30;;;;;;;1.67;83.25;100849.63;126963;1295;98000;-75
2022/12/05 03:36:01;;;;;;;25.50;14.10;;;;;;;1.61;83.24;100849.60;126938;1274;98008;-73
2022/12/05 03:39:12;;;;;;;26.10;14.20;;;;;;;1.60;83.24;100847.38;126926;1278;97997;-74
2022/12/05 03:42:20;;;;;;;21.70;12.40;;;;;;;1.61;83.22;100843.98;126759;1281;97976;-74
2022/12/05 03:45:32;;;;;;;22.40;12.70;;;;;;;1.65;83.24;100844.66;126662;1281;99170;-74
2022/12/05 03:48:40;;;;;;;21.10;13.00;;;;;;;1.71;83.16;100846.64;126913;1285;98076;-74
2022/12/05 03:51:49;;;;;;;22.50;12.50;;;;;;;1.71;83.14;100849.77;126653;1281;98029;-74
2022/12/05 03:54:55;;;;;;;20.70;12.20;;;;;;;1.66;83.00;100849.17;126697;1280;98803;-72
2022/12/05 03:58:05;;;;;;;22.80;12.60;;;;;;;1.62;83.16;100850.42;126617;1280;98295;-76
2022/12/05 04:01:09;;;;;;;23.40;13.20;;;;;;;1.62;83.09;100853.08;126633;1281;99134;-73
2022/12/05 04:04:18;;;;;;;26.60;13.80;;;;;;;1.61;83.29;100851.54;126694;1296;98075;-72
2022/12/05 04:07:21;;;;;;;24.00;14.40;;;;;;;1.61;83.13;100848.38;126993;1287;98187;-75
2022/12/05 04:10:29;;;;;;;21.60;12.70;;;;;;;1.61;83.15;100846.98;126861;1281;98695;-73
2022/12/05 04:13:37;;;;;;;23.60;13.20;;;;;;;1.65;83.21;100844.36;126628;1281;98798;-72
2022/12/05 04:17:03;;;;;;;21.60;12.00;;;;;;;1.63;83.11;100849.15;126840;1281;98213;-73
2022/12/05 04:23:34;;;;;;;20.00;12.00;;;;;;;1.67;83.13;100863.52;126674;1274;98213;-72
2022/12/05 04:26:43;;;;;;;19.70;11.60;;;;;;;1.63;83.01;100868.80;126790;1286;98054;-72
2022/12/05 04:29:53;;;;;;;21.70;12.10;;;;;;;1.60;83.06;100866.67;126760;1288;97984;-73
2022/12/05 04:33:04;;;;;;;22.30;12.40;;;;;;;1.52;83.13;100868.85;126609;1287;97998;-73
2022/12/05 04:36:13;;;;;;;21.50;12.40;;;;;;;1.48;83.32;100864.48;126739;1277;99211;-73
2022/12/05 04:39:22;;;;;;;17.60;10.50;;;;;;;1.50;83.20;100864.40;126729;1280;99138;-73
2022/12/05 04:42:28;;;;;;;20.30;11.00;;;;;;;1.54;83.30;100865.91;126677;1280;98779;-73
2022/12/05 04:45:33;;;;;;;18.80;11.30;;;;;;;1.60;83.25;100873.54;126647;1279;99158;-73
2022/12/05 04:48:40;;;;;;;18.50;11.60;;;;;;;1.63;83.25;100879.32;126761;1278;98045;-73
2022/12/05 04:51:44;;;;;;;20.80;12.00;;;;;;;1.65;83.01;100885.68;126773;1288;99464;-73
2022/12/05 04:54:51;;;;;;;20.00;11.60;;;;;;;1.63;83.04;100886.85;126813;1280;98072;-72
2022/12/05 04:58:02;;;;;;;21.80;12.70;;;;;;;1.62;83.13;100881.33;126787;1280;99283;-72
2022/12/05 05:01:10;;;;;;;22.70;12.90;;;;;;;1.62;83.28;100878.66;126624;1286;97976;-74
2022/12/05 05:04:16;;;;;;;22.90;13.10;;;;;;;1.61;83.16;100876.09;126644;1282;99133;-72
2022/12/05 05:07:19;;;;;;;22.00;11.80;;;;;;;1.64;83.08;100876.45;126859;1288;99140;-72
2022/12/05 05:10:30;;;;;;;20.20;12.10;;;;;;;1.68;83.08;100873.62;127027;1281;98059;-72
2022/12/05 05:13:33;;;;;;;29.40;16.60;;;;;;;1.70;83.06;100870.88;126795;1278;98427;-73
2022/12/05 05:16:37;;;;;;;22.60;13.20;;;;;;;1.69;83.14;100868.98;126745;1278;98748;-72
2022/12/05 05:19:40;;;;;;;20.30;12.10;;;;;;;1.72;83.26;100868.15;126764;1288;98484;-72
2022/12/05 05:22:42;;;;;;;20.10;12.30;;;;;;;1.69;82.93;100866.36;126657;1281;98080;-73
2022/12/05 05:25:45;;;;;;;25.70;14.20;;;;;;;1.65;83.14;100863.27;126708;1274;98074;-72
2022/12/05 05:28:48;;;;;;;25.50;14.10;;;;;;;1.64;83.12;100856.13;126782;1288;99157;-73
2022/12/05 05:31:50;;;;;;;25.20;13.30;;;;;;;1.61;83.11;100857.30;126580;1278;98049;-73
2022/12/05 05:34:53;;;;;;;18.80;11.20;;;;;;;1.62;83.30;100855.02;126663;1287;98532;-73
2022/12/05 05:37:56;;;;;;;23.50;13.90;;;;;;;1.66;83.19;100858.32;126654;1282;99201;-73
2022/12/05 05:40:59;;;;;;;20.90;12.50;;;;;;;1.70;83.19;100864.23;126786;1278;99186;-72
2022/12/05 05:44:02;;;;;;;21.70;12.10;;;;;;;1.71;83.06;100863.64;126626;1297;98007;-73
2022/12/05 05:47:05;;;;;;;22.10;12.90;;;;;;;1.68;83.15;100870.97;126691;1279;98749;-73
2022/12/05 05:50:10;;;;;;;20.80;12.80;;;;;;;1.70;83.00;100871.77;126656;1294;98758;-72
2022/12/05 05:53:12;;;;;;;21.70;12.10;;;;;;;1.69;83.11;100874.61;126679;1280;98699;-73
2022/12/05 05:56:18;;;;;;;24.20;13.70;;;;;;;1.67;83.15;100879.80;127217;1288;98014;-73
2022/12/05 05:59:20;;;;;;;20.90;12.50;;;;;;;1.62;83.13;100882.16;128340;1277;98025;-73
2022/12/05 06:02:23;;;;;;;23.70;13.00;;;;;;;1.59;83.36;100880.75;126918;1277;97972;-72
2022/12/05 06:05:26;;;;;;;17.60;10.30;;;;;;;1.64;83.40;100879.64;127033;1282;99141;-71
2022/12/05 06:08:29;;;;;;;21.30;12.60;;;;;;;1.70;83.46;100880.21;126789;1278;99150;-74
2022/12/05 06:11:32;;;;;;;21.00;13.10;;;;;;;1.70;83.21;100875.61;126658;1278;98023;-72
2022/12/05 06:14:35;;;;;;;22.00;12.30;;;;;;;1.72;83.16;100877.47;126723;1280;99171;-72
2022/12/05 06:17:38;;;;;;;24.80;14.60;;;;;;;1.73;83.19;100878.80;126669;1278;99199;-71
2022/12/05 06:20:41;;;;;;;22.60;13.50;;;;;;;1.75;83.12;100869.56;126447;1282;98063;-72
2022/12/05 06:23:44;;;;;;;24.50;14.00;;;;;;;1.69;83.25;100869.19;126554;1277;99247;-73
2022/12/05 06:26:47;;;;;;;22.70;13.50;;;;;;;1.67;83.21;100868.59;126627;1282;99269;-72
2022/12/05 06:29:49;;;;;;;23.20;13.50;;;;;;;1.68;83.30;100870.83;126449;1277;98009;-72
2022/12/05 06:32:52;;;;;;;23.40;13.40;;;;;;;1.68;83.46;100872.38;126573;1279;98450;-72
2022/12/05 06:36:03;;;;;;;21.90;12.20;;;;;;;1.70;83.29;100871.60;126634;1295;99141;-72
2022/12/05 06:39:06;;;;;;;26.00;14.40;;;;;;;1.73;83.31;100867.35;126857;1282;98628;-72
2022/12/05 06:42:08;;;;;;;26.50;15.10;;;;;;;1.77;83.35;100863.66;126623;1282;98798;-72
2022/12/05 06:45:11;;;;;;;25.70;14.40;;;;;;;1.81;83.32;100860.47;126628;1288;98037;-72
2022/12/05 06:48:14;;;;;;;24.80;14.40;;;;;;;1.84;83.31;100863.62;126570;1288;99202;-72
2022/12/05 06:51:17;;;;;;;26.50;15.10;;;;;;;1.85;83.31;100858.87;126587;1287;98062;-72
2022/12/05 06:54:20;;;;;;;26.30;14.70;;;;;;;1.82;83.29;100858.83;126673;1287;99179;-72
2022/12/05 06:57:22;;;;;;;27.10;14.20;;;;;;;1.79;83.30;100856.06;126695;1278;99100;-72
2022/12/05 07:03:48;;;;;;;23.00;13.60;;;;;;;1.75;83.30;100849.40;126655;1288;98069;-73
2022/12/05 07:06:52;;;;;;;25.20;13.70;;;;;;;1.77;83.51;100849.98;126900;1286;98063;-72
2022/12/05 07:09:55;;;;;;;24.80;15.00;;;;;;;1.83;83.47;100848.27;126986;1280;97979;-72
2022/12/05 07:12:57;;;;;;;25.60;14.50;;;;;;;1.86;83.36;100846.66;126903;1288;97974;-73
2022/12/05 07:16:00;;;;;;;24.40;14.40;;;;;;;1.86;83.39;100851.59;126797;1274;98507;-72
2022/12/05 07:19:03;;;;;;;26.10;15.20;;;;;;;1.84;83.38;100851.56;126805;1295;98948;-72
2022/12/05 07:22:06;;;;;;;27.20;15.00;;;;;;;1.84;83.40;100847.65;126895;1274;99528;-73
2022/12/05 07:25:09;;;;;;;27.60;15.50;;;;;;;1.80;83.48;100842.27;126874;1287;99138;-73
2022/12/05 07:28:12;;;;;;;27.60;15.60;;;;;;;1.78;83.47;100848.35;126857;1277;98075;-72
2022/12/05 07:31:16;;;;;;;23.80;13.40;;;;;;;1.84;83.61;100848.55;126597;1281;98045;-73
2022/12/05 07:34:19;;;;;;;27.10;15.20;;;;;;;1.92;83.62;100844.60;127092;1288;98507;-71
2022/12/05 07:37:24;;;;;;;27.30;15.60;;;;;;;2.01;83.51;100844.68;126548;1284;98478;-72
2022/12/05 07:40:27;;;;;;;191.70;134.70;;;;;;;2.07;83.49;100840.98;126836;1287;98062;-72
2022/12/05 07:43:30;;;;;;;41.80;25.60;;;;;;;2.06;83.17;100843.31;126857;1281;98072;-72
2022/12/05 07:46:34;;;;;;;34.10;21.20;;;;;;;2.05;83.46;100835.64;126585;1282;98119;-71
2022/12/05 07:49:36;;;;;;;35.20;20.60;;;;;;;2.05;83.35;100830.43;126905;1280;99055;-72
2022/12/05 07:52:39;;;;;;;38.70;24.50;;;;;;;2.02;83.52;100824.45;126701;1277;98190;-72
2022/12/05 07:55:42;;;;;;;29.50;16.50;;;;;;;2.00;83.42;100820.14;127040;1275;98134;-72
2022/12/05 07:58:46;;;;;;;23.80;13.90;;;;;;;2.03;83.66;100822.45;127030;1286;99269;-73
2022/12/05 08:01:48;;;;;;;29.80;17.50;;;;;;;2.08;83.51;100820.08;126699;1281;98462;-74
2022/12/05 08:04:51;;;;;;;33.20;18.40;;;;;;;2.14;83.58;100822.55;126755;1280;98695;-71
2022/12/05 08:07:54;;;;;;;46.90;22.70;;;;;;;2.20;83.62;100821.52;126780;1288;98094;-72
2022/12/05 08:11:01;;;;;;;35.70;18.30;;;;;;;2.23;83.36;100825.18;126859;1282;99170;-72
2022/12/05 08:14:05;;;;;;;61.20;28.30;;;;;;;2.26;83.48;100826.27;126747;1296;98095;-71
2022/12/05 08:17:08;;;;;;;48.30;23.40;;;;;;;2.23;83.28;100825.23;126873;1281;98093;-72
2022/12/05 08:20:12;;;;;;;47.90;23.20;;;;;;;2.18;83.49;100827.41;126829;1281;99036;-74
2022/12/05 08:23:15;;;;;;;53.40;25.70;;;;;;;2.12;83.51;100834.04;126786;1282;98390;-72
2022/12/05 08:26:20;;;;;;;35.40;18.20;;;;;;;2.12;83.42;100837.25;126716;1291;98000;-71
2022/12/05 08:29:23;;;;;;;26.90;15.60;;;;;;;2.17;83.64;100833.80;126919;1288;97972;-74
2022/12/05 08:32:26;;;;;;;30.40;17.20;;;;;;;2.23;83.64;100833.64;126950;1288;99473;-73
2022/12/05 08:35:29;;;;;;;27.80;16.40;;;;;;;2.31;83.65;100833.70;127042;1280;99166;-73
2022/12/05 08:38:31;;;;;;;28.40;17.40;;;;;;;2.40;83.53;100832.86;126975;1282;98443;-73
2022/12/05 08:41:34;;;;;;;32.30;18.80;;;;;;;2.44;83.33;100829.35;126974;1277;99167;-74
2022/12/05 08:44:37;;;;;;;34.10;19.40;;;;;;;2.45;83.36;100828.52;126980;1285;98074;-71
2022/12/05 08:47:39;;;;;;;31.80;17.50;;;;;;;2.48;83.32;100824.67;126731;1287;99164;-71
2022/12/05 08:50:42;;;;;;;33.80;18.00;;;;;;;2.49;83.40;100825.50;126503;1277;99246;-73
2022/12/05 08:53:45;;;;;;;30.10;16.90;;;;;;;2.52;83.24;100824.63;126696;1281;99052;-75
2022/12/05 08:56:50;;;;;;;26.90;15.50;;;;;;;2.55;83.28;100823.05;126671;1282;98710;-70
2022/12/05 08:59:53;;;;;;;35.10;18.40;;;;;;;2.59;83.26;100823.39;126572;1288;97982;-71
2022/12/05 09:02:56;;;;;;;34.00;19.70;;;;;;;2.60;83.30;100835.08;126777;1280;98030;-75
2022/12/05 09:06:07;;;;;;;31.70;18.70;;;;;;;2.61;83.34;100829.20;126753;1287;99172;-75
2022/12/05 09:09:11;;;;;;;31.10;17.80;;;;;;;2.64;83.17;100830.07;127007;1276;99103;-75
2022/12/05 09:12:14;;;;;;;29.30;17.20;;;;;;;2.68;83.37;100831.98;126925;1285;97974;-74
2022/12/05 09:15:17;;;;;;;31.60;18.20;;;;;;;2.71;83.41;100825.29;126950;1287;98034;-76
2022/12/05 09:18:20;;;;;;;32.80;19.30;;;;;;;2.76;83.29;100816.44;126997;1285;99167;-75
2022/12/05 09:21:25;;;;;;;34.00;18.90;;;;;;;2.75;83.02;100812.75;126854;1285;98068;-76
2022/12/05 09:24:28;;;;;;;31.10;18.00;;;;;;;2.70;83.03;100811.48;126960;1285;97928;-75
2022/12/05 09:27:31;;;;;;;32.90;17.70;;;;;;;2.70;83.49;100801.46;126949;1277;98580;-75
2022/12/05 09:30:33;;;;;;;34.10;17.80;;;;;;;2.72;83.32;100799.91;126918;1277;99619;-75
2022/12/05 09:33:37;;;;;;;30.90;16.80;;;;;;;2.75;83.20;100801.14;126999;1285;98012;-76
2022/12/05 09:36:41;;;;;;;34.40;19.00;;;;;;;2.78;83.50;100795.59;127068;1285;98059;-76
2022/12/05 09:39:44;;;;;;;32.20;18.50;;;;;;;2.83;83.32;100792.79;126749;1287;99166;-73
2022/12/05 09:43:03;;;;;;;35.20;18.70;;;;;;;2.83;82.93;100795.12;126763;1288;98040;-76
2022/12/05 09:46:15;;;;;;;35.70;19.20;;;;;;;2.81;83.12;100797.86;126686;1292;97976;-73
2022/12/05 09:49:19;;;;;;;36.20;19.10;;;;;;;2.75;83.09;100792.56;126660;1285;98005;-73
2022/12/05 09:52:26;;;;;;;37.00;19.50;;;;;;;2.74;83.19;100783.45;126725;1279;98048;-71
2022/12/05 09:55:39;;;;;;;35.00;19.60;;;;;;;2.77;83.17;100780.48;126670;1285;99112;-73
2022/12/05 09:58:44;;;;;;;29.70;16.80;;;;;;;2.79;83.18;100781.11;126675;1287;99113;-73
2022/12/05 10:01:55;;;;;;;58.20;28.50;;;;;;;2.83;83.16;100778.72;126707;1294;98717;-73
2022/12/05 10:05:06;;;;;;;122.70;80.60;;;;;;;2.90;83.25;100776.53;126905;1285;97986;-73
2022/12/05 10:08:16;;;;;;;42.70;25.40;;;;;;;2.93;83.08;100772.88;126952;1281;99118;-74
2022/12/05 10:11:26;;;;;;;35.40;19.90;;;;;;;2.96;82.95;100771.31;126692;1293;99090;-73
2022/12/05 10:14:39;;;;;;;30.40;17.60;;;;;;;2.95;83.04;100777.64;126905;1280;98070;-72
2022/12/05 10:17:46;;;;;;;32.50;19.10;;;;;;;2.91;82.93;100780.35;126707;1285;98061;-73
2022/12/05 10:20:55;;;;;;;31.80;18.70;;;;;;;2.92;83.15;100771.90;126734;1278;99157;-73
2022/12/05 10:24:01;;;;;;;37.80;19.80;;;;;;;2.93;83.04;100766.20;126659;1287;98020;-72
2022/12/05 10:27:07;;;;;;;35.20;18.50;;;;;;;2.95;83.06;100762.21;126997;1285;97994;-73
2022/12/05 10:30:15;;;;;;;35.40;19.10;;;;;;;3.00;83.24;100750.64;126801;1291;99147;-74
2022/12/05 10:33:21;;;;;;;79.00;34.40;;;;;;;3.10;83.21;100752.03;126941;1280;99128;-73
2022/12/05 10:36:25;;;;;;;85.90;31.70;;;;;;;3.20;83.13;100754.06;126871;1277;98068;-74
2022/12/05 10:39:28;;;;;;;141.50;49.10;;;;;;;3.30;83.04;100755.69;126622;1289;97972;-74
2022/12/05 10:42:33;;;;;;;96.80;34.80;;;;;;;3.39;83.11;100751.84;126658;1284;98103;-73
2022/12/05 10:45:40;;;;;;;62.20;28.30;;;;;;;3.47;82.93;100749.25;126947;1293;98066;-72
2022/12/05 10:48:44;;;;;;;54.40;25.90;;;;;;;3.52;82.66;100741.52;127002;1287;98781;-71
2022/12/05 10:51:48;;;;;;;60.50;27.20;;;;;;;3.51;82.65;100737.56;126819;1289;99142;-73
2022/12/05 10:54:56;;;;;;;60.50;27.50;;;;;;;3.48;82.63;100734.56;126846;1287;98267;-74
2022/12/05 10:58:14;;;;;;;46.30;23.70;;;;;;;3.49;82.81;100725.36;126971;1281;99176;-72
2022/12/05 11:01:17;;;;;;;36.10;19.40;;;;;;;3.50;82.63;100730.39;126914;1291;97989;-72
2022/12/05 11:04:31;;;;;;;45.80;21.80;;;;;;;3.51;82.63;100730.65;126746;1282;99106;-73
2022/12/05 11:07:37;;;;;;;42.60;23.10;;;;;;;3.57;82.65;100734.02;127013;1287;98056;-72
2022/12/05 11:10:42;;;;;;;37.40;19.50;;;;;;;3.60;82.44;100724.15;126965;1289;99132;-72
2022/12/05 11:13:53;;;;;;;34.10;18.00;;;;;;;3.59;82.30;100714.70;126884;1285;97980;-72
2022/12/05 11:16:59;;;;;;;30.70;17.40;;;;;;;3.55;82.43;100720.93;126863;1282;97974;-72
2022/12/05 11:20:36;;;;;;;29.80;17.50;;;;;;;3.53;82.42;100724.73;126936;1282;99141;-73
2022/12/05 11:23:40;;;;;;;34.10;18.40;;;;;;;3.40;82.26;100728.35;126745;1294;97975;-72
2022/12/05 11:26:44;;;;;;;36.70;20.80;;;;;;;3.37;82.71;100725.05;126640;1278;98018;-72
2022/12/05 11:29:56;;;;;;;34.10;18.50;;;;;;;3.35;82.45;100724.11;126954;1282;98016;-72
2022/12/05 11:33:17;;;;;;;32.80;16.50;;;;;;;3.32;82.48;100727.08;126932;1280;98643;-73
2022/12/05 11:36:23;;;;;;;31.00;16.70;;;;;;;3.33;82.50;100727.20;126853;1279;99146;-73
2022/12/05 11:39:26;;;;;;;67.90;25.60;;;;;;;3.39;82.58;100727.22;126695;1288;98012;-73
2022/12/05 11:42:40;;;;;;;40.90;19.40;;;;;;;3.43;82.39;100720.46;126804;1288;99150;-72
2022/12/05 11:45:58;;;;;;;85.80;30.20;;;;;;;3.41;82.34;100715.14;126839;1285;99166;-73
2022/12/05 11:49:19;;;;;;;57.40;24.00;;;;;;;3.39;82.35;100714.69;126890;1277;98647;-74
2022/12/05 11:52:31;;;;;;;76.20;30.10;;;;;;;3.33;82.04;100714.92;126767;1280;98403;-73
2022/12/05 11:55:41;;;;;;;70.00;29.40;;;;;;;3.22;82.42;100707.48;126672;1288;98779;-74
2022/12/05 11:58:59;;;;;;;82.50;32.50;;;;;;;3.17;82.65;100704.09;126893;1280;99145;-73
2022/12/05 12:02:15;;;;;;;88.10;35.10;;;;;;;3.19;82.51;100701.73;126786;1287;98753;-74
2022/12/05 12:05:27;;;;;;;66.10;29.30;;;;;;;3.17;82.65;100690.42;126768;1288;99135;-72
2022/12/05 12:08:34;;;;;;;84.80;32.50;;;;;;;3.16;82.71;100683.60;126809;1277;98416;-72
2022/12/05 12:11:44;;;;;;;68.80;29.60;;;;;;;3.22;82.60;100676.22;126622;1282;99069;-72
2022/12/05 12:14:58;;;;;;;64.70;29.20;;;;;;;3.27;82.68;100673.63;126603;1285;98748;-73
2022/12/05 12:18:11;;;;;;;52.20;25.30;;;;;;;3.31;82.46;100667.89;126978;1288;98079;-72
2022/12/05 12:21:19;;;;;;;56.30;26.40;;;;;;;3.35;82.66;100666.95;127025;1287;97973;-73
2022/12/05 12:24:32;;;;;;;53.10;27.20;;;;;;;3.39;82.60;100669.91;126721;1286;99133;-73
2022/12/05 12:27:51;;;;;;;44.40;22.70;;;;;;;3.41;82.49;100678.38;126636;1282;99168;-73
2022/12/05 12:31:05;;;;;;;38.50;21.10;;;;;;;3.40;82.40;100667.20;126677;1295;98070;-72
2022/12/05 12:34:28;;;;;;;53.50;24.10;;;;;;;3.38;82.45;100660.98;126584;1288;99195;-72
2022/12/05 12:37:41;;;;;;;67.70;27.80;;;;;;;3.39;82.36;100654.41;126698;1279;99137;-73
2022/12/05 12:40:49;;;;;;;69.00;27.60;;;;;;;3.43;82.56;100656.56;126676;1282;98763;-71
2022/12/05 12:44:06;;;;;;;81.80;31.50;;;;;;;3.50;82.52;100650.33;126806;1282;98009;-73
2022/12/05 12:47:15;;;;;;;77.60;31.30;;;;;;;3.56;82.42;100642.44;126934;1287;99167;-74
2022/12/05 12:50:21;;;;;;;58.00;26.50;;;;;;;3.59;82.38;100648.21;127013;1281;98073;-72
2022/12/05 12:53:50;;;;;;;61.70;32.40;;;;;;;3.57;82.37;100646.60;126640;1295;98470;-74
2022/12/05 12:57:02;;;;;;;61.80;27.50;;;;;;;3.57;82.27;100639.40;126747;1280;98010;-73
2022/12/05 13:00:19;;;;;;;66.10;32.60;;;;;;;3.53;82.30;100645.59;126711;1294;98044;-73
2022/12/05 13:03:27;;;;;;;96.60;36.30;;;;;;;3.46;82.19;100648.84;126672;1285;98720;-73
2022/12/05 13:06:38;;;;;;;67.50;29.50;;;;;;;3.40;82.47;100641.15;126789;1281;97991;-74
2022/12/05 13:09:46;;;;;;;66.20;29.00;;;;;;;3.39;82.54;100640.52;126709;1288;98743;-74
2022/12/05 13:12:51;;;;;;;78.20;31.10;;;;;;;3.41;82.61;100636.68;126830;1294;99156;-76
2022/12/05 13:15:57;;;;;;;82.10;32.40;;;;;;;3.43;82.35;100639.38;126935;1279;98377;-74
2022/12/05 13:19:01;;;;;;;67.60;28.30;;;;;;;3.46;82.41;100633.04;126965;1294;99104;-72
2022/12/05 13:22:07;;;;;;;79.20;31.90;;;;;;;3.46;82.33;100632.30;126980;1295;98009;-72
2022/12/05 13:25:14;;;;;;;76.90;31.20;;;;;;;3.46;82.36;100634.06;126840;1285;118925;-72
2022/12/05 13:28:26;;;;;;;73.50;31.60;;;;;;;3.42;82.22;100627.50;126856;1277;99110;-72
2022/12/05 13:31:37;;;;;;;105.00;39.30;;;;;;;3.37;82.42;100626.91;126698;1278;99144;-72
2022/12/05 13:34:47;;;;;;;94.20;35.50;;;;;;;3.33;82.29;100622.40;126860;1287;98005;-73
2022/12/05 13:44:39;;;;;;;61.20;26.50;;;;;;;3.23;82.40;100626.73;126690;1273;98771;-72
2022/12/05 13:47:54;;;;;;;63.80;28.50;;;;;;;3.25;82.55;100629.61;126690;1286;98752;-74
2022/12/05 13:51:01;;;;;;;65.60;31.60;;;;;;;3.30;82.51;100627.88;126597;1288;97993;-74
2022/12/05 13:54:12;;;;;;;76.10;35.40;;;;;;;3.34;82.56;100625.84;126722;1287;99096;-73
2022/12/05 13:57:45;;;;;;;65.90;32.10;;;;;;;3.32;82.51;100621.38;126659;1287;97973;-73
2022/12/05 14:00:48;;;;;;;76.80;37.10;;;;;;;3.32;82.45;100625.14;126712;1288;99033;-72
2022/12/05 14:03:57;;;;;;;54.40;29.30;;;;;;;3.29;82.70;100626.58;126573;1294;98752;-74
2022/12/05 14:06:59;;;;;;;60.60;28.80;;;;;;;3.26;82.60;100627.41;126600;1295;99163;-73
2022/12/05 14:10:02;;;;;;;51.30;25.70;;;;;;;3.26;82.43;100630.42;126568;1281;99151;-73
2022/12/05 14:13:40;;;;;;;51.40;26.70;;;;;;;3.22;82.69;100635.63;126686;1280;99176;-74
2022/12/05 14:16:45;;;;;;;55.10;28.10;;;;;;;3.27;82.58;100627.22;126907;1288;98021;-72
2022/12/05 14:19:58;;;;;;;66.90;35.60;;;;;;;3.27;82.51;100622.95;126663;1288;97994;-73
2022/12/05 14:23:17;;;;;;;105.00;47.90;;;;;;;3.29;82.48;100621.61;126589;1287;99163;-73